sensor_id;sensor_type;location;lat;lon;timestamp;P1;durP1;ratioP1;P2;durP2;ratioP2
38591;SDS011;24356;48.460;11.450;2023-04-01T00:00:23;1.27;;;0.40;;
38591;SDS011;24356;48.460;11.450;2023-04-01T00:02:49;3.38;;;0.40;;
38591;SDS011;24356;48.460;11.450;2023-04-01T00:05:15;2.15;;;0.38;;
38591;SDS011;24356;48.460;11.450;2023-04-01T00:07:41;2.25;;;0.60;;
38591;SDS011;24356;48.460;11.450;2023-04-01T00:10:09;1.17;;;0.43;;
38591;SDS011;24356;48.460;11.450;2023-04-01T00:12:36;2.47;;;0.52;;
38591;SDS011;24356;48.460;11.450;2023-04-01T00:15:05;1.92;;;0.43;;
38591;SDS011;24356;48.460;11.450;2023-04-01T00:17:33;0.88;;;0.40;;
38591;SDS011;24356;48.460;11.450;2023-04-01T00:19:59;2.75;;;0.52;;
38591;SDS011;24356;48.460;11.450;2023-04-01T00:22:25;2.38;;;0.47;;
38591;SDS011;24356;48.460;11.450;2023-04-01T00:24:52;2.90;;;0.38;;
38591;SDS011;24356;48.460;11.450;2023-04-01T00:27:18;3.22;;;0.50;;
38591;SDS011;24356;48.460;11.450;2023-04-01T00:29:44;1.45;;;0.40;;
38591;SDS011;24356;48.460;11.450;2023-04-01T00:32:12;4.63;;;0.68;;
38591;SDS011;24356;48.460;11.450;2023-04-01T00:34:39;2.35;;;0.60;;
38591;SDS011;24356;48.460;11.450;2023-04-01T00:37:06;3.45;;;0.80;;
38591;SDS011;24356;48.460;11.450;2023-04-01T00:39:32;1.83;;;0.47;;
38591;SDS011;24356;48.460;11.450;2023-04-01T00:41:59;2.53;;;0.55;;
38591;SDS011;24356;48.460;11.450;2023-04-01T00:44:27;1.63;;;0.43;;
38591;SDS011;24356;48.460;11.450;2023-04-01T00:46:55;1.27;;;0.47;;
38591;SDS011;24356;48.460;11.450;2023-04-01T00:49:25;3.40;;;0.40;;
38591;SDS011;24356;48.460;11.450;2023-04-01T00:54:22;2.20;;;0.40;;
38591;SDS011;24356;48.460;11.450;2023-04-01T00:56:51;4.53;;;0.63;;
38591;SDS011;24356;48.460;11.450;2023-04-01T00:59:34;4.13;;;0.68;;
38591;SDS011;24356;48.460;11.450;2023-04-01T01:02:04;4.55;;;0.88;;
38591;SDS011;24356;48.460;11.450;2023-04-01T01:04:34;3.15;;;0.80;;
38591;SDS011;24356;48.460;11.450;2023-04-01T01:07:10;4.25;;;0.75;;
38591;SDS011;24356;48.460;11.450;2023-04-01T01:09:41;2.25;;;0.80;;
38591;SDS011;24356;48.460;11.450;2023-04-01T01:12:44;4.75;;;0.60;;
38591;SDS011;24356;48.460;11.450;2023-04-01T01:34:34;3.60;;;0.75;;
38591;SDS011;24356;48.460;11.450;2023-04-01T01:37:24;2.10;;;0.60;;
38591;SDS011;24356;48.460;11.450;2023-04-01T01:39:56;5.28;;;0.70;;
38591;SDS011;24356;48.460;11.450;2023-04-01T01:42:28;3.33;;;0.70;;
38591;SDS011;24356;48.460;11.450;2023-04-01T01:44:56;3.10;;;0.55;;
38591;SDS011;24356;48.460;11.450;2023-04-01T01:47:25;2.53;;;0.50;;
38591;SDS011;24356;48.460;11.450;2023-04-01T01:49:52;3.00;;;0.75;;
38591;SDS011;24356;48.460;11.450;2023-04-01T01:52:19;1.20;;;0.40;;
38591;SDS011;24356;48.460;11.450;2023-04-01T01:54:48;1.63;;;0.28;;
38591;SDS011;24356;48.460;11.450;2023-04-01T01:57:14;3.38;;;0.68;;
38591;SDS011;24356;48.460;11.450;2023-04-01T01:59:42;2.10;;;0.50;;
38591;SDS011;24356;48.460;11.450;2023-04-01T02:02:09;2.80;;;0.50;;
38591;SDS011;24356;48.460;11.450;2023-04-01T02:04:38;2.05;;;0.45;;
38591;SDS011;24356;48.460;11.450;2023-04-01T02:07:07;2.08;;;0.35;;
38591;SDS011;24356;48.460;11.450;2023-04-01T02:09:37;1.52;;;0.40;;
38591;SDS011;24356;48.460;11.450;2023-04-01T02:12:05;2.38;;;0.40;;
38591;SDS011;24356;48.460;11.450;2023-04-01T02:14:43;2.80;;;0.47;;
38591;SDS011;24356;48.460;11.450;2023-04-01T02:17:12;2.17;;;0.70;;
38591;SDS011;24356;48.460;11.450;2023-04-01T02:19:44;3.90;;;0.80;;
38591;SDS011;24356;48.460;11.450;2023-04-01T02:22:16;3.30;;;0.50;;
38591;SDS011;24356;48.460;11.450;2023-04-01T02:24:46;4.30;;;0.60;;
38591;SDS011;24356;48.460;11.450;2023-04-01T02:27:15;1.85;;;0.60;;
38591;SDS011;24356;48.460;11.450;2023-04-01T02:29:41;1.63;;;0.60;;
38591;SDS011;24356;48.460;11.450;2023-04-01T02:32:07;1.77;;;0.52;;
38591;SDS011;24356;48.460;11.450;2023-04-01T02:34:33;2.00;;;0.50;;
38591;SDS011;24356;48.460;11.450;2023-04-01T02:36:59;0.82;;;0.55;;
38591;SDS011;24356;48.460;11.450;2023-04-01T02:39:25;3.00;;;0.43;;
38591;SDS011;24356;48.460;11.450;2023-04-01T02:41:53;2.15;;;0.60;;
38591;SDS011;24356;48.460;11.450;2023-04-01T02:44:20;2.53;;;0.45;;
38591;SDS011;24356;48.460;11.450;2023-04-01T02:46:46;3.42;;;0.57;;
38591;SDS011;24356;48.460;11.450;2023-04-01T02:49:11;2.00;;;0.52;;
38591;SDS011;24356;48.460;11.450;2023-04-01T02:51:37;1.95;;;0.50;;
38591;SDS011;24356;48.460;11.450;2023-04-01T02:54:03;1.73;;;0.47;;
38591;SDS011;24356;48.460;11.450;2023-04-01T02:56:29;1.30;;;0.50;;
38591;SDS011;24356;48.460;11.450;2023-04-01T02:58:55;1.80;;;0.40;;
38591;SDS011;24356;48.460;11.450;2023-04-01T03:01:21;2.45;;;0.32;;
38591;SDS011;24356;48.460;11.450;2023-04-01T03:03:47;2.47;;;0.55;;
38591;SDS011;24356;48.460;11.450;2023-04-01T03:06:14;0.82;;;0.25;;
38591;SDS011;24356;48.460;11.450;2023-04-01T03:08:41;0.35;;;0.30;;
38591;SDS011;24356;48.460;11.450;2023-04-01T03:11:06;2.78;;;0.30;;
38591;SDS011;24356;48.460;11.450;2023-04-01T03:13:32;1.38;;;0.50;;
38591;SDS011;24356;48.460;11.450;2023-04-01T03:15:58;2.03;;;0.40;;
38591;SDS011;24356;48.460;11.450;2023-04-01T03:18:23;2.53;;;0.32;;
38591;SDS011;24356;48.460;11.450;2023-04-01T03:20:49;2.08;;;0.40;;
38591;SDS011;24356;48.460;11.450;2023-04-01T03:23:15;2.70;;;0.63;;
38591;SDS011;24356;48.460;11.450;2023-04-01T03:25:46;2.38;;;0.20;;
38591;SDS011;24356;48.460;11.450;2023-04-01T03:28:12;1.75;;;0.30;;
38591;SDS011;24356;48.460;11.450;2023-04-01T03:30:38;1.65;;;0.45;;
38591;SDS011;24356;48.460;11.450;2023-04-01T03:33:04;1.67;;;0.30;;
38591;SDS011;24356;48.460;11.450;2023-04-01T03:35:33;0.40;;;0.28;;
38591;SDS011;24356;48.460;11.450;2023-04-01T03:38:00;2.65;;;0.45;;
38591;SDS011;24356;48.460;11.450;2023-04-01T03:40:26;1.17;;;0.30;;
38591;SDS011;24356;48.460;11.450;2023-04-01T03:42:52;0.63;;;0.28;;
38591;SDS011;24356;48.460;11.450;2023-04-01T03:45:17;2.03;;;0.30;;
38591;SDS011;24356;48.460;11.450;2023-04-01T03:47:43;1.60;;;0.30;;
38591;SDS011;24356;48.460;11.450;2023-04-01T03:50:09;1.50;;;0.20;;
38591;SDS011;24356;48.460;11.450;2023-04-01T03:52:35;1.80;;;0.30;;
38591;SDS011;24356;48.460;11.450;2023-04-01T03:55:01;0.45;;;0.17;;
38591;SDS011;24356;48.460;11.450;2023-04-01T03:57:27;0.22;;;0.10;;
38591;SDS011;24356;48.460;11.450;2023-04-01T03:59:52;1.20;;;0.40;;
38591;SDS011;24356;48.460;11.450;2023-04-01T04:02:18;0.88;;;0.20;;
38591;SDS011;24356;48.460;11.450;2023-04-01T04:04:44;1.90;;;0.20;;
38591;SDS011;24356;48.460;11.450;2023-04-01T04:07:11;2.90;;;0.40;;
38591;SDS011;24356;48.460;11.450;2023-04-01T04:09:37;0.57;;;0.20;;
38591;SDS011;24356;48.460;11.450;2023-04-01T04:12:02;0.77;;;0.30;;
38591;SDS011;24356;48.460;11.450;2023-04-01T04:14:30;0.55;;;0.17;;
38591;SDS011;24356;48.460;11.450;2023-04-01T04:16:56;1.10;;;0.15;;
38591;SDS011;24356;48.460;11.450;2023-04-01T04:19:22;2.42;;;0.20;;
38591;SDS011;24356;48.460;11.450;2023-04-01T04:21:48;1.45;;;0.30;;
38591;SDS011;24356;48.460;11.450;2023-04-01T04:24:14;0.63;;;0.10;;
38591;SDS011;24356;48.460;11.450;2023-04-01T04:26:39;2.47;;;0.28;;
38591;SDS011;24356;48.460;11.450;2023-04-01T04:29:05;0.43;;;0.20;;
38591;SDS011;24356;48.460;11.450;2023-04-01T04:31:30;1.08;;;0.25;;
38591;SDS011;24356;48.460;11.450;2023-04-01T04:33:58;0.32;;;0.15;;
38591;SDS011;24356;48.460;11.450;2023-04-01T04:36:26;0.30;;;0.20;;
38591;SDS011;24356;48.460;11.450;2023-04-01T04:38:52;1.17;;;0.20;;
38591;SDS011;24356;48.460;11.450;2023-04-01T04:41:18;0.98;;;0.20;;
38591;SDS011;24356;48.460;11.450;2023-04-01T04:43:51;1.15;;;0.20;;
38591;SDS011;24356;48.460;11.450;2023-04-01T04:46:20;0.30;;;0.20;;
38591;SDS011;24356;48.460;11.450;2023-04-01T04:48:46;0.47;;;0.13;;
38591;SDS011;24356;48.460;11.450;2023-04-01T04:51:13;0.10;;;0.10;;
38591;SDS011;24356;48.460;11.450;2023-04-01T04:53:40;0.45;;;0.10;;
38591;SDS011;24356;48.460;11.450;2023-04-01T04:56:05;0.25;;;0.10;;
38591;SDS011;24356;48.460;11.450;2023-04-01T04:58:31;0.50;;;0.15;;
38591;SDS011;24356;48.460;11.450;2023-04-01T05:00:57;1.85;;;0.30;;
38591;SDS011;24356;48.460;11.450;2023-04-01T05:03:23;0.40;;;0.20;;
38591;SDS011;24356;48.460;11.450;2023-04-01T05:05:49;1.17;;;0.38;;
38591;SDS011;24356;48.460;11.450;2023-04-01T05:08:17;0.40;;;0.30;;
38591;SDS011;24356;48.460;11.450;2023-04-01T05:10:43;1.13;;;0.20;;
38591;SDS011;24356;48.460;11.450;2023-04-01T05:13:09;2.05;;;0.22;;
38591;SDS011;24356;48.460;11.450;2023-04-01T05:15:35;1.10;;;0.30;;
38591;SDS011;24356;48.460;11.450;2023-04-01T05:18:03;1.17;;;0.43;;
38591;SDS011;24356;48.460;11.450;2023-04-01T05:20:29;2.28;;;0.40;;
38591;SDS011;24356;48.460;11.450;2023-04-01T05:22:55;2.67;;;0.50;;
38591;SDS011;24356;48.460;11.450;2023-04-01T05:25:21;0.60;;;0.40;;
38591;SDS011;24356;48.460;11.450;2023-04-01T05:27:47;2.13;;;0.50;;
38591;SDS011;24356;48.460;11.450;2023-04-01T05:30:12;1.13;;;0.50;;
38591;SDS011;24356;48.460;11.450;2023-04-01T05:32:39;2.67;;;0.50;;
38591;SDS011;24356;48.460;11.450;2023-04-01T05:35:05;0.82;;;0.50;;
38591;SDS011;24356;48.460;11.450;2023-04-01T05:37:33;1.13;;;0.40;;
38591;SDS011;24356;48.460;11.450;2023-04-01T05:40:02;0.75;;;0.40;;
38591;SDS011;24356;48.460;11.450;2023-04-01T05:42:29;2.83;;;0.60;;
38591;SDS011;24356;48.460;11.450;2023-04-01T05:44:54;2.15;;;0.30;;
38591;SDS011;24356;48.460;11.450;2023-04-01T05:47:20;0.50;;;0.40;;
38591;SDS011;24356;48.460;11.450;2023-04-01T05:49:46;1.63;;;0.50;;
38591;SDS011;24356;48.460;11.450;2023-04-01T05:52:12;2.08;;;0.50;;
38591;SDS011;24356;48.460;11.450;2023-04-01T05:54:38;2.08;;;0.80;;
38591;SDS011;24356;48.460;11.450;2023-04-01T05:57:04;2.28;;;0.35;;
38591;SDS011;24356;48.460;11.450;2023-04-01T05:59:30;3.22;;;0.60;;
38591;SDS011;24356;48.460;11.450;2023-04-01T06:01:59;2.22;;;0.38;;
38591;SDS011;24356;48.460;11.450;2023-04-01T06:04:26;0.68;;;0.30;;
38591;SDS011;24356;48.460;11.450;2023-04-01T06:06:57;4.07;;;0.50;;
38591;SDS011;24356;48.460;11.450;2023-04-01T06:09:27;2.03;;;0.52;;
38591;SDS011;24356;48.460;11.450;2023-04-01T06:31:34;2.50;;;0.32;;
38591;SDS011;24356;48.460;11.450;2023-04-01T06:47:53;0.85;;;0.50;;
38591;SDS011;24356;48.460;11.450;2023-04-01T06:50:55;2.28;;;0.50;;
38591;SDS011;24356;48.460;11.450;2023-04-01T06:54:04;2.80;;;0.68;;
38591;SDS011;24356;48.460;11.450;2023-04-01T06:56:44;4.28;;;0.50;;
38591;SDS011;24356;48.460;11.450;2023-04-01T06:59:12;1.60;;;0.52;;
38591;SDS011;24356;48.460;11.450;2023-04-01T07:01:44;2.70;;;0.60;;
38591;SDS011;24356;48.460;11.450;2023-04-01T07:04:32;5.63;;;0.70;;
38591;SDS011;24356;48.460;11.450;2023-04-01T07:09:49;3.65;;;0.70;;
38591;SDS011;24356;48.460;11.450;2023-04-01T07:12:36;1.65;;;0.40;;
38591;SDS011;24356;48.460;11.450;2023-04-01T07:15:16;1.52;;;0.50;;
38591;SDS011;24356;48.460;11.450;2023-04-01T07:17:59;3.00;;;0.70;;
38591;SDS011;24356;48.460;11.450;2023-04-01T07:20:33;2.13;;;0.38;;
38591;SDS011;24356;48.460;11.450;2023-04-01T07:23:02;4.05;;;0.80;;
38591;SDS011;24356;48.460;11.450;2023-04-01T07:25:33;2.30;;;0.70;;
38591;SDS011;24356;48.460;11.450;2023-04-01T07:28:05;1.40;;;0.50;;
38591;SDS011;24356;48.460;11.450;2023-04-01T07:30:44;3.33;;;0.80;;
38591;SDS011;24356;48.460;11.450;2023-04-01T07:34:35;2.30;;;0.45;;
38591;SDS011;24356;48.460;11.450;2023-04-01T07:50:31;0.98;;;0.30;;
38591;SDS011;24356;48.460;11.450;2023-04-01T08:01:17;2.83;;;0.40;;
38591;SDS011;24356;48.460;11.450;2023-04-01T08:09:54;1.92;;;0.30;;
38591;SDS011;24356;48.460;11.450;2023-04-01T08:15:10;2.05;;;0.50;;
38591;SDS011;24356;48.460;11.450;2023-04-01T08:23:24;0.77;;;0.38;;
38591;SDS011;24356;48.460;11.450;2023-04-01T08:26:06;2.10;;;0.28;;
38591;SDS011;24356;48.460;11.450;2023-04-01T08:29:03;2.00;;;0.52;;
38591;SDS011;24356;48.460;11.450;2023-04-01T08:34:08;0.63;;;0.20;;
38591;SDS011;24356;48.460;11.450;2023-04-01T08:36:48;0.90;;;0.32;;
38591;SDS011;24356;48.460;11.450;2023-04-01T08:39:29;1.58;;;0.43;;
38591;SDS011;24356;48.460;11.450;2023-04-01T08:48:00;2.50;;;0.40;;
38591;SDS011;24356;48.460;11.450;2023-04-01T09:26:34;0.75;;;0.50;;
38591;SDS011;24356;48.460;11.450;2023-04-01T09:45:55;1.48;;;0.30;;
38591;SDS011;24356;48.460;11.450;2023-04-01T09:53:46;0.63;;;0.25;;
38591;SDS011;24356;48.460;11.450;2023-04-01T10:05:04;0.80;;;0.20;;
38591;SDS011;24356;48.460;11.450;2023-04-01T10:16:39;0.40;;;0.10;;
38591;SDS011;24356;48.460;11.450;2023-04-01T10:22:24;0.73;;;0.20;;
38591;SDS011;24356;48.460;11.450;2023-04-01T10:31:03;0.22;;;0.22;;
38591;SDS011;24356;48.460;11.450;2023-04-01T10:36:52;0.43;;;0.20;;
38591;SDS011;24356;48.460;11.450;2023-04-01T10:42:04;0.30;;;0.10;;
38591;SDS011;24356;48.460;11.450;2023-04-01T10:55:37;0.03;;;0.03;;
38591;SDS011;24356;48.460;11.450;2023-04-01T11:04:18;1.23;;;0.10;;
38591;SDS011;24356;48.460;11.450;2023-04-01T11:15:39;0.88;;;0.08;;
38591;SDS011;24356;48.460;11.450;2023-04-01T11:23:58;0.20;;;0.20;;
38591;SDS011;24356;48.460;11.450;2023-04-01T11:26:57;0.68;;;0.10;;
38591;SDS011;24356;48.460;11.450;2023-04-01T11:35:24;0.20;;;0.10;;
38591;SDS011;24356;48.460;11.450;2023-04-01T11:38:17;0.20;;;0.15;;
38591;SDS011;24356;48.460;11.450;2023-04-01T11:40:47;1.00;;;0.10;;
38591;SDS011;24356;48.460;11.450;2023-04-01T11:57:07;1.75;;;0.30;;
38591;SDS011;24356;48.460;11.450;2023-04-01T11:59:44;0.85;;;0.60;;
38591;SDS011;24356;48.460;11.450;2023-04-01T12:05:18;0.75;;;0.20;;
38591;SDS011;24356;48.460;11.450;2023-04-01T12:08:11;0.28;;;0.10;;
38591;SDS011;24356;48.460;11.450;2023-04-01T12:10:46;0.50;;;0.45;;
38591;SDS011;24356;48.460;11.450;2023-04-01T12:21:36;0.20;;;0.13;;
38591;SDS011;24356;48.460;11.450;2023-04-01T12:26:59;0.47;;;0.30;;
38591;SDS011;24356;48.460;11.450;2023-04-01T12:32:40;1.67;;;0.90;;
38591;SDS011;24356;48.460;11.450;2023-04-01T12:35:20;0.38;;;0.38;;
38591;SDS011;24356;48.460;11.450;2023-04-01T12:40:54;1.27;;;0.50;;
38591;SDS011;24356;48.460;11.450;2023-04-01T12:51:26;0.75;;;0.47;;
38591;SDS011;24356;48.460;11.450;2023-04-01T13:00:12;0.45;;;0.45;;
38591;SDS011;24356;48.460;11.450;2023-04-01T13:08:36;1.25;;;1.15;;
38591;SDS011;24356;48.460;11.450;2023-04-01T13:16:26;0.98;;;0.98;;
38591;SDS011;24356;48.460;11.450;2023-04-01T13:29:35;1.30;;;1.20;;
38591;SDS011;24356;48.460;11.450;2023-04-01T13:38:11;1.10;;;0.80;;
38591;SDS011;24356;48.460;11.450;2023-04-01T13:40:49;0.95;;;0.75;;
38591;SDS011;24356;48.460;11.450;2023-04-01T13:43:28;0.70;;;0.70;;
38591;SDS011;24356;48.460;11.450;2023-04-01T13:46:22;0.60;;;0.60;;
38591;SDS011;24356;48.460;11.450;2023-04-01T14:03:20;0.22;;;0.20;;
38591;SDS011;24356;48.460;11.450;2023-04-01T14:24:18;2.28;;;0.20;;
38591;SDS011;24356;48.460;11.450;2023-04-01T14:35:21;0.20;;;0.20;;
38591;SDS011;24356;48.460;11.450;2023-04-01T14:38:10;0.40;;;0.40;;
38591;SDS011;24356;48.460;11.450;2023-04-01T14:40:55;0.50;;;0.30;;
38591;SDS011;24356;48.460;11.450;2023-04-01T14:43:39;0.43;;;0.20;;
38591;SDS011;24356;48.460;11.450;2023-04-01T14:49:19;1.45;;;0.30;;
38591;SDS011;24356;48.460;11.450;2023-04-01T14:51:49;0.40;;;0.30;;
38591;SDS011;24356;48.460;11.450;2023-04-01T14:54:18;0.17;;;0.17;;
38591;SDS011;24356;48.460;11.450;2023-04-01T14:59:28;0.68;;;0.30;;
38591;SDS011;24356;48.460;11.450;2023-04-01T15:01:59;2.55;;;1.73;;
38591;SDS011;24356;48.460;11.450;2023-04-01T15:07:49;7.80;;;5.38;;
38591;SDS011;24356;48.460;11.450;2023-04-01T15:19:04;4.38;;;2.60;;
38591;SDS011;24356;48.460;11.450;2023-04-01T15:22:00;2.97;;;2.30;;
38591;SDS011;24356;48.460;11.450;2023-04-01T15:35:31;1.23;;;0.80;;
38591;SDS011;24356;48.460;11.450;2023-04-01T15:38:18;0.73;;;0.40;;
38591;SDS011;24356;48.460;11.450;2023-04-01T15:41:15;1.65;;;0.50;;
38591;SDS011;24356;48.460;11.450;2023-04-01T15:43:48;1.45;;;0.60;;
38591;SDS011;24356;48.460;11.450;2023-04-01T15:46:30;1.65;;;0.52;;
38591;SDS011;24356;48.460;11.450;2023-04-01T15:57:38;1.65;;;0.40;;
38591;SDS011;24356;48.460;11.450;2023-04-01T16:00:11;0.70;;;0.50;;
38591;SDS011;24356;48.460;11.450;2023-04-01T16:11:30;0.60;;;0.50;;
38591;SDS011;24356;48.460;11.450;2023-04-01T16:22:05;0.43;;;0.35;;
38591;SDS011;24356;48.460;11.450;2023-04-01T16:41:11;0.20;;;0.20;;
38591;SDS011;24356;48.460;11.450;2023-04-01T16:43:43;1.23;;;0.38;;
38591;SDS011;24356;48.460;11.450;2023-04-01T16:46:26;0.28;;;0.28;;
38591;SDS011;24356;48.460;11.450;2023-04-01T16:51:52;0.75;;;0.35;;
38591;SDS011;24356;48.460;11.450;2023-04-01T16:57:26;0.98;;;0.30;;
38591;SDS011;24356;48.460;11.450;2023-04-01T17:00:15;0.85;;;0.47;;
38591;SDS011;24356;48.460;11.450;2023-04-01T17:11:18;0.40;;;0.40;;
38591;SDS011;24356;48.460;11.450;2023-04-01T17:16:42;1.20;;;0.40;;
38591;SDS011;24356;48.460;11.450;2023-04-01T17:27:58;0.73;;;0.68;;
38591;SDS011;24356;48.460;11.450;2023-04-01T17:39:25;2.65;;;0.40;;
38591;SDS011;24356;48.460;11.450;2023-04-01T17:42:15;0.30;;;0.30;;
38591;SDS011;24356;48.460;11.450;2023-04-01T17:53:22;0.40;;;0.38;;
38591;SDS011;24356;48.460;11.450;2023-04-01T18:10:41;1.75;;;0.50;;
38591;SDS011;24356;48.460;11.450;2023-04-01T18:21:46;2.95;;;0.60;;
38591;SDS011;24356;48.460;11.450;2023-04-01T18:26:49;0.82;;;0.57;;
38591;SDS011;24356;48.460;11.450;2023-04-01T18:29:31;0.50;;;0.47;;
38591;SDS011;24356;48.460;11.450;2023-04-01T18:35:01;3.40;;;0.95;;
38591;SDS011;24356;48.460;11.450;2023-04-01T18:37:36;0.68;;;0.40;;
38591;SDS011;24356;48.460;11.450;2023-04-01T18:40:50;2.87;;;0.97;;
38591;SDS011;24356;48.460;11.450;2023-04-01T18:43:09;0.90;;;0.55;;
38591;SDS011;24356;48.460;11.450;2023-04-01T18:45:43;1.63;;;0.68;;
38591;SDS011;24356;48.460;11.450;2023-04-01T18:51:11;1.02;;;0.70;;
38591;SDS011;24356;48.460;11.450;2023-04-01T18:53:49;0.63;;;0.60;;
38591;SDS011;24356;48.460;11.450;2023-04-01T18:56:24;1.10;;;0.60;;
38591;SDS011;24356;48.460;11.450;2023-04-01T18:59:08;2.03;;;0.80;;
38591;SDS011;24356;48.460;11.450;2023-04-01T19:06:57;0.70;;;0.40;;
38591;SDS011;24356;48.460;11.450;2023-04-01T19:09:32;1.10;;;0.50;;
38591;SDS011;24356;48.460;11.450;2023-04-01T19:12:24;1.77;;;0.60;;
38591;SDS011;24356;48.460;11.450;2023-04-01T19:25:58;0.82;;;0.63;;
38591;SDS011;24356;48.460;11.450;2023-04-01T19:34:11;1.30;;;0.40;;
38591;SDS011;24356;48.460;11.450;2023-04-01T19:37:11;0.30;;;0.30;;
38591;SDS011;24356;48.460;11.450;2023-04-01T19:45:40;1.70;;;0.63;;
38591;SDS011;24356;48.460;11.450;2023-04-01T19:51:23;0.52;;;0.28;;
38591;SDS011;24356;48.460;11.450;2023-04-01T19:54:09;2.45;;;0.68;;
38591;SDS011;24356;48.460;11.450;2023-04-01T19:56:41;1.20;;;0.55;;
38591;SDS011;24356;48.460;11.450;2023-04-01T20:01:53;0.73;;;0.60;;
38591;SDS011;24356;48.460;11.450;2023-04-01T20:04:50;0.82;;;0.50;;
38591;SDS011;24356;48.460;11.450;2023-04-01T20:18:00;0.88;;;0.50;;
38591;SDS011;24356;48.460;11.450;2023-04-01T20:20:30;1.38;;;0.50;;
38591;SDS011;24356;48.460;11.450;2023-04-01T20:25:54;3.28;;;0.47;;
38591;SDS011;24356;48.460;11.450;2023-04-01T20:28:25;1.05;;;0.35;;
38591;SDS011;24356;48.460;11.450;2023-04-01T20:31:09;0.52;;;0.47;;
38591;SDS011;24356;48.460;11.450;2023-04-01T20:37:29;1.00;;;0.57;;
38591;SDS011;24356;48.460;11.450;2023-04-01T20:39:47;0.70;;;0.50;;
38591;SDS011;24356;48.460;11.450;2023-04-01T20:42:29;0.45;;;0.40;;
38591;SDS011;24356;48.460;11.450;2023-04-01T20:47:58;1.67;;;0.60;;
38591;SDS011;24356;48.460;11.450;2023-04-01T20:50:52;0.65;;;0.43;;
38591;SDS011;24356;48.460;11.450;2023-04-01T20:53:35;0.50;;;0.50;;
38591;SDS011;24356;48.460;11.450;2023-04-01T21:01:40;1.13;;;0.52;;
38591;SDS011;24356;48.460;11.450;2023-04-01T21:06:41;1.23;;;0.68;;
38591;SDS011;24356;48.460;11.450;2023-04-01T21:25:22;0.38;;;0.38;;
38591;SDS011;24356;48.460;11.450;2023-04-01T21:30:53;1.38;;;0.32;;
38591;SDS011;24356;48.460;11.450;2023-04-01T21:53:44;2.10;;;0.57;;
38591;SDS011;24356;48.460;11.450;2023-04-01T21:59:00;1.08;;;0.57;;
38591;SDS011;24356;48.460;11.450;2023-04-01T22:06:40;0.93;;;0.40;;
38591;SDS011;24356;48.460;11.450;2023-04-01T22:09:32;0.85;;;0.50;;
38591;SDS011;24356;48.460;11.450;2023-04-01T22:12:01;0.88;;;0.60;;
38591;SDS011;24356;48.460;11.450;2023-04-01T22:18:29;0.50;;;0.50;;
38591;SDS011;24356;48.460;11.450;2023-04-01T22:21:07;1.65;;;0.68;;
38591;SDS011;24356;48.460;11.450;2023-04-01T22:26:31;3.10;;;0.60;;
38591;SDS011;24356;48.460;11.450;2023-04-01T22:29:22;1.00;;;0.52;;
38591;SDS011;24356;48.460;11.450;2023-04-01T22:32:08;2.63;;;0.60;;
38591;SDS011;24356;48.460;11.450;2023-04-01T22:42:56;0.93;;;0.63;;
38591;SDS011;24356;48.460;11.450;2023-04-01T22:50:53;0.85;;;0.47;;
38591;SDS011;24356;48.460;11.450;2023-04-01T22:53:46;2.75;;;0.68;;
38591;SDS011;24356;48.460;11.450;2023-04-01T22:59:14;2.63;;;0.52;;
38591;SDS011;24356;48.460;11.450;2023-04-01T23:04:41;0.82;;;0.50;;
38591;SDS011;24356;48.460;11.450;2023-04-01T23:07:19;2.72;;;0.65;;
38591;SDS011;24356;48.460;11.450;2023-04-01T23:09:53;2.28;;;0.93;;
38591;SDS011;24356;48.460;11.450;2023-04-01T23:12:21;2.13;;;0.77;;
38591;SDS011;24356;48.460;11.450;2023-04-01T23:14:50;2.13;;;0.63;;
38591;SDS011;24356;48.460;11.450;2023-04-01T23:17:25;1.92;;;0.75;;
38591;SDS011;24356;48.460;11.450;2023-04-01T23:33:17;1.30;;;0.80;;
38591;SDS011;24356;48.460;11.450;2023-04-01T23:35:53;1.20;;;0.63;;
38591;SDS011;24356;48.460;11.450;2023-04-01T23:38:29;1.80;;;0.82;;
38591;SDS011;24356;48.460;11.450;2023-04-01T23:41:02;0.70;;;0.70;;
38591;SDS011;24356;48.460;11.450;2023-04-01T23:43:31;1.67;;;0.60;;
38591;SDS011;24356;48.460;11.450;2023-04-01T23:46:05;1.02;;;0.60;;
38591;SDS011;24356;48.460;11.450;2023-04-01T23:48:35;1.27;;;0.60;;
38591;SDS011;24356;48.460;11.450;2023-04-01T23:51:02;0.70;;;0.55;;
38591;SDS011;24356;48.460;11.450;2023-04-01T23:53:41;1.98;;;0.52;;
38591;SDS011;24356;48.460;11.450;2023-04-01T23:56:11;3.28;;;0.70;;
38591;SDS011;24356;48.460;11.450;2023-04-01T23:58:43;1.48;;;0.52;;
